Terminal Aerodrome Forecast
Issued by NWS

Home | Current Version | Previous Version | Text Only | Print | Product List | Glossary On
Versions: 1 2 3 4 5 6 7 8 9 10 11 12 13 14 15 16 17 18 19 20 21 22 23 24 25 26 27 28 29 30 31 32 33 34 35 36 37
000
FTUS45 KBOU 150102 AAA
TAFAPA
TAF AMD
KAPA 150102Z 1501/1524 02012KT 5SM -SN BR SCT007 BKN012 OVC020
      TEMPO 1501/1503 2SM -SN BR BKN004 BKN012
     FM150300 01010KT 5SM -SN BKN020 OVC030
     FM150400 34008KT P6SM BKN030 OVC050
     FM150800 25006KT P6SM SCT050 BKN080
     FM151300 18007KT P6SM FEW080 SCT120
     FM151900 34013G24KT P6SM SCT130 SCT220=

USA.gov is the U.S. government's official web portal to all federal, state and local government web resources and services.